Totem Lake, Washington
Current Conditions -  °F | °C
As of 10:53 PM on Sunday 21 Dec 2014 (Local Time) from KBFI Reporting Station
Few Clouds Few Clouds  
Wind Chill: 54°   Ceiling: Unl
Heat Index: 54°   Visibility: 10mi
Dew Point: 46°   Wind: 7mph
Humidity: 75%   Direction: 220°SW
Pressure: 30.08"   Gusts: 16mph
Location:  47.7179°N, 122.204°W
Report Text: KBFI 220653Z 22006G14KT 10SM FEW100 12/08 A3008 RMK AO2 SLP186 T01220078
Loading
Personal Weather Stations






























Interactive Weather Map New forecast layout! Learn more

10-Day Weather Forecast

Advertisements
Track Severe Weather on mobile